MUCM/CMW METAR and TAF weather

Enter ICAO airport designator
Station Type Date Time Source
MUCM METAR 2021/06/24 05:50 UTC NOAA

MUCM 240550Z 04005KT 9000 NSC 24/23 Q1018


Station Type Date Time Source
MUCM Decoded METAR 2021/06/24 05:50 UTC NOAA

Camaguey Aeropuerto, Cuba (MUCM) 21-25N 077-51W 118M
Jun 24, 2021 - 01:50 AM EDT / 2021.06.24 0550 UTC
Wind: from the NE (040 degrees) at 6 MPH (5 KT):0
Visibility: 5 mile(s):0
Temperature: 75 F (24 C)
Dew Point: 73 F (23 C)
Relative Humidity: 94%
Pressure (altimeter): 30.06 in. Hg (1018 hPa)
ob: MUCM 240550Z 04005KT 9000 NSC 24/23 Q1018
cycle: 6

Station Type Date Time Source
MUCM TAF 2021/06/24 06:07 UTC NOAA

TAF MUCM 240500Z 2406/2506 03006KT 9000 SCT020
BECMG 2415/2417 04011KT
TEMPO 2418/2424 SCT018CB BKN020
BECMG 2501/2503 05006KT

Example: see airport list